createdAt,value
2017-12-04T00:01:19.753Z,98.10
2017-12-04T00:03:50.869Z,98.00
2017-12-04T00:06:18.162Z,98.00
2017-12-04T00:08:50.191Z,98.10
2017-12-04T00:11:21.539Z,98.10
2017-12-04T00:13:51.256Z,98.40
2017-12-04T00:16:24.397Z,98.30
2017-12-04T00:18:59.492Z,98.40
2017-12-04T00:21:32.333Z,98.20
2017-12-04T00:24:07.281Z,98.30
2017-12-04T00:26:38.401Z,98.70
2017-12-04T00:29:05.363Z,98.70
2017-12-04T00:31:32.258Z,98.60
2017-12-04T00:33:59.893Z,98.30
2017-12-04T00:36:26.827Z,98.30
2017-12-04T00:38:53.711Z,98.50
2017-12-04T00:41:22.167Z,98.40
2017-12-04T00:43:51.480Z,98.40
2017-12-04T00:46:19.268Z,98.20
2017-12-04T00:48:46.209Z,98.20
2017-12-04T00:51:15.519Z,98.50
2017-12-04T00:53:44.343Z,98.50
2017-12-04T00:56:11.557Z,98.30
2017-12-04T00:58:38.640Z,98.40
2017-12-04T01:01:05.604Z,98.30
2017-12-04T01:03:32.948Z,98.40
2017-12-04T01:05:59.861Z,98.50
2017-12-04T01:08:29.950Z,98.60
2017-12-04T01:10:57.950Z,98.40
2017-12-04T01:13:24.902Z,98.40
2017-12-04T01:15:52.261Z,98.40
2017-12-04T01:18:19.191Z,98.60
2017-12-04T01:20:49.384Z,98.50
2017-12-04T01:23:17.520Z,98.40
2017-12-04T01:25:44.469Z,98.50
2017-12-04T01:28:11.467Z,98.50
2017-12-04T01:30:39.068Z,98.50
2017-12-04T01:33:06.019Z,98.50
2017-12-04T01:35:33.727Z,98.60
2017-12-04T01:38:03.394Z,98.70
2017-12-04T01:40:30.269Z,98.60
2017-12-04T01:42:57.307Z,98.80
2017-12-04T01:45:24.319Z,99.00
2017-12-04T01:47:51.235Z,98.90
2017-12-04T01:50:18.900Z,99.30
2017-12-04T01:52:46.562Z,98.80
2017-12-04T01:55:14.255Z,98.60
2017-12-04T01:57:41.191Z,98.60
2017-12-04T02:00:08.045Z,98.80
2017-12-04T02:02:35.004Z,98.70
2017-12-04T02:05:02.016Z,98.80
2017-12-04T02:07:29.004Z,98.60
2017-12-04T02:09:55.993Z,98.40
2017-12-04T02:12:22.941Z,98.40
2017-12-04T02:14:49.912Z,98.20
2017-12-04T02:17:17.609Z,98.40
2017-12-04T02:19:44.531Z,98.40
2017-12-04T02:22:11.611Z,98.50
2017-12-04T02:24:38.659Z,98.90
2017-12-04T02:27:05.723Z,98.70
2017-12-04T02:29:32.748Z,98.90
2017-12-04T02:31:59.671Z,99.20
2017-12-04T02:34:26.580Z,99.30
2017-12-04T02:36:54.381Z,99.30
2017-12-04T02:39:21.970Z,99.30
2017-12-04T02:41:51.211Z,99.00
2017-12-04T02:44:20.259Z,99.00
2017-12-04T02:46:47.313Z,99.10
2017-12-04T02:49:16.818Z,98.80
2017-12-04T02:51:46.081Z,98.90
2017-12-04T02:54:15.933Z,99.50
2017-12-04T02:56:42.995Z,99.50
2017-12-04T02:59:11.427Z,99.30
2017-12-04T03:01:38.471Z,99.20
2017-12-04T03:04:05.325Z,99.00
2017-12-04T03:06:32.289Z,99.20
2017-12-04T03:09:00.048Z,99.10
2017-12-04T03:11:26.916Z,99.10
2017-12-04T03:13:54.556Z,99.30
2017-12-04T03:16:22.388Z,99.40
2017-12-04T03:18:49.406Z,99.50
2017-12-04T03:21:16.455Z,99.30
2017-12-04T03:23:43.428Z,99.50
2017-12-04T03:26:10.447Z,99.50
2017-12-04T03:28:37.430Z,99.30
2017-12-04T03:31:04.469Z,99.40
2017-12-04T03:33:31.444Z,99.70
2017-12-04T03:35:58.455Z,99.50
2017-12-04T03:38:25.734Z,99.60
2017-12-04T03:40:53.774Z,99.60
2017-12-04T03:43:20.995Z,99.50
2017-12-04T03:45:49.027Z,99.40
2017-12-04T03:48:16.999Z,99.40
2017-12-04T03:50:44.033Z,99.60
2017-12-04T03:53:11.232Z,99.60
2017-12-04T03:55:39.297Z,99.70
2017-12-04T03:58:06.624Z,99.70
2017-12-04T04:00:34.120Z,99.90
2017-12-04T04:03:01.737Z,99.40
2017-12-04T04:05:28.691Z,99.40
2017-12-04T04:07:56.287Z,99.30
2017-12-04T04:10:24.431Z,99.20
2017-12-04T04:12:51.922Z,99.30
2017-12-04T04:15:19.505Z,99.60
2017-12-04T04:17:46.524Z,99.30
2017-12-04T04:20:13.447Z,99.40
2017-12-04T04:22:40.417Z,99.60
2017-12-04T04:25:07.331Z,99.70
2017-12-04T04:27:34.196Z,99.80
2017-12-04T04:30:01.155Z,99.90
2017-12-04T04:32:28.002Z,99.90
2017-12-04T04:34:54.946Z,99.90
2017-12-04T04:37:21.928Z,99.90
2017-12-04T04:39:48.899Z,99.90
2017-12-04T04:42:15.796Z,99.90
2017-12-04T04:44:43.480Z,99.90
2017-12-04T04:47:10.449Z,99.90
2017-12-04T04:49:37.363Z,99.90
2017-12-04T04:52:04.451Z,99.90
2017-12-04T04:54:31.495Z,99.90
2017-12-04T04:56:58.408Z,99.90
2017-12-04T04:59:26.259Z,99.90
2017-12-04T05:01:53.186Z,99.90
2017-12-04T05:04:20.155Z,99.90
2017-12-04T05:06:47.847Z,99.90
2017-12-04T05:09:15.884Z,99.90
2017-12-04T05:11:44.284Z,99.90
2017-12-04T05:14:11.227Z,99.90
2017-12-04T05:16:39.000Z,99.90
2017-12-04T05:19:06.004Z,99.90
2017-12-04T05:21:37.829Z,99.90
2017-12-04T05:24:07.175Z,99.90
2017-12-04T05:26:45.592Z,99.90
2017-12-04T05:29:24.463Z,99.90
2017-12-04T05:31:52.825Z,99.90
2017-12-04T05:34:21.501Z,99.90
2017-12-04T05:39:33.616Z,99.90
2017-12-04T05:42:00.820Z,99.90
2017-12-04T05:44:30.889Z,99.90
2017-12-04T05:47:01.982Z,99.90
2017-12-04T05:49:32.246Z,99.90
2017-12-04T05:52:02.934Z,99.90
2017-12-04T05:54:30.923Z,99.90
2017-12-04T05:56:59.322Z,99.90
2017-12-04T05:59:27.314Z,99.90
2017-12-04T06:01:54.393Z,99.90
2017-12-04T06:04:23.666Z,99.90
2017-12-04T06:06:51.257Z,99.90
2017-12-04T06:09:19.124Z,99.90
2017-12-04T06:11:48.214Z,99.90
2017-12-04T06:14:17.040Z,99.90
2017-12-04T06:16:44.000Z,99.90
2017-12-04T06:19:10.932Z,99.90
2017-12-04T06:21:39.744Z,99.90
2017-12-04T06:24:06.688Z,99.90
2017-12-04T06:26:33.535Z,99.90
2017-12-04T06:29:02.384Z,99.90
2017-12-04T06:31:30.688Z,99.90
2017-12-04T06:33:57.608Z,99.90
2017-12-04T06:36:24.520Z,99.90
2017-12-04T06:38:51.448Z,99.90
2017-12-04T06:41:22.657Z,99.90
2017-12-04T06:43:49.837Z,99.90
2017-12-04T06:46:16.756Z,99.90
2017-12-04T06:48:47.858Z,99.90
2017-12-04T06:51:15.729Z,99.90
2017-12-04T06:53:50.439Z,99.90
2017-12-04T06:56:20.974Z,99.90
2017-12-04T06:58:50.668Z,99.90
2017-12-04T07:01:19.201Z,99.90
2017-12-04T07:03:46.560Z,99.90
2017-12-04T07:06:14.195Z,99.90
2017-12-04T07:08:41.659Z,99.90
2017-12-04T07:11:18.429Z,99.90
2017-12-04T07:13:47.855Z,99.90
2017-12-04T07:16:17.468Z,99.90
2017-12-04T07:18:46.411Z,99.90
2017-12-04T07:21:15.341Z,99.90
2017-12-04T07:23:52.509Z,99.90
2017-12-04T07:26:19.525Z,99.90
2017-12-04T07:28:48.617Z,99.90
2017-12-04T07:31:15.480Z,99.90
2017-12-04T07:33:42.347Z,99.90
2017-12-04T07:36:09.309Z,99.90
2017-12-04T07:38:38.556Z,99.90
2017-12-04T07:41:05.548Z,99.90
2017-12-04T07:43:32.488Z,99.90
2017-12-04T07:45:59.433Z,99.90
2017-12-04T07:48:26.308Z,99.90
2017-12-04T07:50:53.203Z,99.90
2017-12-04T07:53:20.141Z,99.90
2017-12-04T07:55:47.089Z,99.90
2017-12-04T07:58:14.462Z,99.90
2017-12-04T08:00:43.840Z,99.90
2017-12-04T08:03:11.162Z,99.90
2017-12-04T08:05:38.269Z,99.90
2017-12-04T08:08:05.268Z,99.90
2017-12-04T08:10:32.180Z,99.90
2017-12-04T08:13:00.886Z,99.90
2017-12-04T08:15:37.134Z,99.90
2017-12-04T08:18:08.379Z,99.90
2017-12-04T08:20:39.115Z,99.90
2017-12-04T08:23:14.226Z,99.90
2017-12-04T08:25:45.366Z,99.90
2017-12-04T08:28:17.678Z,99.90
2017-12-04T08:30:48.933Z,99.90
2017-12-04T08:33:20.830Z,99.90
2017-12-04T08:35:57.654Z,99.90
2017-12-04T08:38:30.232Z,99.90
2017-12-04T08:41:02.893Z,99.90
2017-12-04T08:43:31.929Z,99.90
2017-12-04T08:46:03.565Z,99.90
2017-12-04T08:48:39.297Z,99.90
2017-12-04T08:51:16.021Z,99.90
2017-12-04T08:53:45.394Z,99.90
2017-12-04T08:56:14.206Z,99.90
2017-12-04T08:58:41.821Z,99.90
2017-12-04T09:01:08.809Z,99.90
2017-12-04T09:03:36.504Z,99.90
2017-12-04T09:06:03.418Z,99.90
2017-12-04T09:08:31.240Z,99.90
2017-12-04T09:10:58.147Z,99.90
2017-12-04T09:13:25.044Z,99.90
2017-12-04T09:15:51.983Z,99.90
2017-12-04T09:18:18.955Z,99.90
2017-12-04T09:20:45.968Z,99.90
2017-12-04T09:23:12.969Z,99.90
2017-12-04T09:25:40.787Z,99.90
2017-12-04T09:28:07.714Z,99.90
2017-12-04T09:30:34.728Z,99.90
2017-12-04T09:33:02.386Z,99.90
2017-12-04T09:35:29.383Z,99.90
2017-12-04T09:37:56.296Z,99.90
2017-12-04T09:40:23.238Z,99.90
2017-12-04T09:42:50.195Z,99.90
2017-12-04T09:45:17.086Z,99.90
2017-12-04T09:47:44.044Z,99.90
2017-12-04T09:50:11.047Z,99.90
2017-12-04T09:52:38.020Z,99.90
2017-12-04T09:55:04.935Z,99.90
2017-12-04T09:57:31.957Z,99.90
2017-12-04T09:59:59.600Z,99.90
2017-12-04T10:02:26.595Z,99.90
2017-12-04T10:04:53.842Z,99.90
2017-12-04T10:07:21.715Z,99.90
2017-12-04T10:09:48.920Z,99.90
2017-12-04T10:12:16.027Z,99.90
2017-12-04T10:14:42.944Z,99.90
2017-12-04T10:17:10.236Z,99.90
2017-12-04T10:19:39.476Z,99.90
2017-12-04T10:22:07.872Z,99.60
2017-12-04T10:24:34.848Z,99.60
2017-12-04T10:27:03.044Z,99.50
2017-12-04T10:29:29.929Z,99.60
2017-12-04T10:31:57.653Z,99.30
2017-12-04T10:34:26.264Z,99.30
2017-12-04T10:36:54.707Z,99.40
2017-12-04T10:39:23.023Z,99.20
2017-12-04T10:41:54.744Z,99.10
2017-12-04T10:44:21.709Z,99.10
2017-12-04T10:46:50.661Z,99.10
2017-12-04T10:49:17.540Z,98.90
2017-12-04T10:51:48.076Z,98.90
2017-12-04T10:54:20.192Z,98.90
2017-12-04T10:56:48.412Z,98.70
2017-12-04T10:59:16.803Z,98.90
2017-12-04T11:01:50.471Z,99.00
2017-12-04T11:04:28.146Z,98.90
2017-12-04T11:07:03.149Z,98.90
2017-12-04T11:09:42.026Z,98.90
2017-12-04T11:12:20.039Z,99.10
2017-12-04T11:14:52.481Z,99.10
2017-12-04T11:17:25.663Z,99.20
2017-12-04T11:19:54.725Z,99.20
2017-12-04T11:22:23.695Z,99.40
2017-12-04T11:24:57.328Z,99.50
2017-12-04T11:27:27.210Z,99.40
2017-12-04T11:29:54.188Z,99.70
2017-12-04T11:32:21.087Z,99.70
2017-12-04T11:34:48.088Z,99.60
2017-12-04T11:37:14.994Z,99.80
2017-12-04T11:39:42.024Z,99.70
2017-12-04T11:42:11.530Z,99.90
2017-12-04T11:44:38.501Z,99.90
2017-12-04T11:47:05.421Z,99.90
2017-12-04T11:49:36.120Z,99.90
2017-12-04T11:52:03.312Z,99.90
2017-12-04T11:54:33.544Z,99.50
2017-12-04T11:57:00.495Z,99.60
2017-12-04T11:59:29.483Z,99.40
2017-12-04T12:01:56.414Z,99.30
2017-12-04T12:04:24.025Z,99.50
2017-12-04T12:06:51.235Z,99.50
2017-12-04T12:09:18.849Z,99.40
2017-12-04T12:11:45.841Z,99.40
2017-12-04T12:14:13.600Z,99.50
2017-12-04T12:16:42.434Z,99.50
2017-12-04T12:19:09.336Z,99.60
2017-12-04T12:21:52.422Z,99.40
2017-12-04T12:24:21.113Z,99.40
2017-12-04T12:26:52.194Z,99.50
2017-12-04T12:29:33.559Z,99.40
2017-12-04T12:32:04.071Z,99.10
2017-12-04T12:34:30.966Z,99.10
2017-12-04T12:37:00.201Z,99.30
2017-12-04T12:39:27.180Z,99.30
2017-12-04T12:41:54.392Z,99.50
2017-12-04T12:44:21.330Z,99.20
2017-12-04T12:46:50.452Z,99.60
2017-12-04T12:49:17.660Z,99.80
2017-12-04T12:51:46.622Z,99.90
2017-12-04T12:54:17.686Z,99.90
2017-12-04T12:56:44.788Z,99.80
2017-12-04T12:59:11.740Z,99.80
2017-12-04T13:01:46.025Z,99.90
2017-12-04T13:04:18.508Z,99.90
2017-12-04T13:06:47.727Z,99.90
2017-12-04T13:09:14.641Z,99.90
2017-12-04T13:11:42.697Z,99.60
2017-12-04T13:14:10.576Z,99.90
2017-12-04T13:16:37.590Z,99.90
2017-12-04T13:19:04.611Z,99.90
2017-12-04T13:21:33.597Z,99.90
2017-12-04T13:24:00.536Z,99.90
2017-12-04T13:26:29.312Z,99.90
2017-12-04T13:28:56.198Z,99.90
2017-12-04T13:31:24.938Z,99.90
2017-12-04T13:34:04.242Z,99.90
2017-12-04T13:36:55.219Z,99.90
2017-12-04T13:39:23.026Z,99.90
2017-12-04T13:41:54.064Z,99.90
2017-12-04T13:44:23.220Z,99.90
2017-12-04T13:46:50.175Z,99.90
2017-12-04T13:49:17.047Z,99.90
2017-12-04T13:51:50.384Z,99.90
2017-12-04T13:54:17.610Z,99.90
2017-12-04T13:56:46.026Z,99.90
2017-12-04T13:59:16.474Z,99.90
2017-12-04T14:01:46.371Z,99.90
2017-12-04T14:04:14.780Z,99.90
2017-12-04T14:06:42.510Z,99.90
2017-12-04T14:09:09.386Z,99.90
2017-12-04T14:11:38.992Z,99.90
2017-12-04T14:14:05.915Z,99.90
2017-12-04T14:16:32.845Z,99.90
2017-12-04T14:19:01.500Z,99.90
2017-12-04T14:21:28.551Z,99.90
2017-12-04T14:23:55.679Z,99.90
2017-12-04T14:26:22.559Z,99.90
2017-12-04T14:28:51.314Z,99.90
2017-12-04T14:31:20.077Z,99.90
2017-12-04T14:33:46.977Z,99.90
2017-12-04T14:36:14.638Z,99.90
2017-12-04T14:38:41.555Z,99.90
2017-12-04T14:41:11.139Z,99.90
2017-12-04T14:43:38.108Z,99.90
2017-12-04T14:46:04.996Z,99.90
2017-12-04T14:48:33.155Z,99.90
2017-12-04T14:51:01.796Z,99.90
2017-12-04T14:53:31.487Z,99.90
2017-12-04T14:55:58.606Z,99.90
2017-12-04T14:58:39.064Z,99.90
2017-12-04T15:01:09.821Z,99.90
2017-12-04T15:03:38.719Z,99.90
2017-12-04T15:06:05.772Z,99.90
2017-12-04T15:08:32.777Z,99.90
2017-12-04T15:11:12.203Z,99.90
2017-12-04T15:13:48.648Z,99.90
2017-12-04T15:16:17.082Z,99.90
2017-12-04T15:18:56.992Z,99.90
2017-12-04T15:21:33.458Z,99.90
2017-12-04T15:24:14.383Z,99.90
2017-12-04T15:29:31.003Z,99.90
2017-12-04T15:31:58.567Z,99.90
2017-12-04T15:34:31.235Z,99.90
2017-12-04T15:37:10.271Z,99.90
2017-12-04T15:39:42.816Z,99.90
2017-12-04T15:42:11.528Z,99.90
2017-12-04T15:44:39.507Z,99.90
2017-12-04T15:47:08.699Z,99.90
2017-12-04T15:49:39.892Z,99.90
2017-12-04T15:52:06.987Z,99.90
2017-12-04T15:54:34.244Z,99.90
2017-12-04T15:57:03.036Z,99.90
2017-12-04T15:59:30.628Z,99.90
2017-12-04T16:01:57.648Z,99.90
2017-12-04T16:04:24.640Z,99.90
2017-12-04T16:06:58.417Z,99.90
2017-12-04T16:09:31.690Z,99.90
2017-12-04T16:12:00.461Z,99.90
2017-12-04T16:14:31.615Z,99.90
2017-12-04T16:16:58.599Z,99.90
2017-12-04T16:19:26.349Z,99.90
2017-12-04T16:21:54.555Z,99.90
2017-12-04T16:24:32.712Z,99.90
2017-12-04T16:27:00.557Z,99.90
2017-12-04T16:29:37.130Z,99.90
2017-12-04T16:32:04.374Z,99.90
2017-12-04T16:34:32.178Z,99.90
2017-12-04T16:37:09.623Z,99.90
2017-12-04T16:39:36.522Z,99.90
2017-12-04T16:42:05.268Z,99.90
2017-12-04T16:44:35.568Z,99.90
2017-12-04T16:47:03.371Z,99.90
2017-12-04T16:49:31.056Z,99.90
2017-12-04T16:52:03.900Z,99.90
2017-12-04T16:54:35.404Z,99.90
2017-12-04T16:57:07.264Z,99.90
2017-12-04T16:59:36.431Z,99.90
2017-12-04T17:02:03.844Z,99.90
2017-12-04T17:04:30.756Z,99.90
2017-12-04T17:07:01.930Z,99.90
2017-12-04T17:09:32.785Z,99.90
2017-12-04T17:12:00.315Z,99.90
2017-12-04T17:14:33.514Z,99.90
2017-12-04T17:17:02.830Z,99.90
2017-12-04T17:19:38.408Z,99.90
2017-12-04T17:22:06.761Z,99.90
2017-12-04T17:24:36.267Z,99.90
2017-12-04T17:27:09.711Z,99.90
2017-12-04T17:29:43.461Z,99.90
2017-12-04T17:32:12.318Z,99.90
2017-12-04T17:34:43.386Z,99.90
2017-12-04T17:37:10.376Z,99.90
2017-12-04T17:39:43.307Z,99.90
2017-12-04T17:45:06.653Z,99.90
2017-12-04T17:47:38.493Z,99.90
2017-12-04T17:52:50.375Z,99.90
2017-12-04T17:55:17.660Z,99.90
2017-12-04T17:57:44.577Z,99.90
2017-12-04T18:00:11.627Z,99.90
2017-12-04T18:02:38.604Z,99.90
2017-12-04T18:05:05.580Z,99.90
2017-12-04T18:07:32.608Z,99.90
2017-12-04T18:09:59.706Z,99.90
2017-12-04T18:12:26.637Z,99.90
2017-12-04T18:14:53.624Z,99.90
2017-12-04T18:17:21.356Z,99.90
2017-12-04T18:19:48.367Z,99.90
2017-12-04T18:22:15.343Z,99.90
2017-12-04T18:24:42.387Z,99.90
2017-12-04T18:27:09.491Z,99.90
2017-12-04T18:29:37.272Z,99.90
2017-12-04T18:32:04.256Z,99.90
2017-12-04T18:34:31.398Z,99.90
2017-12-04T18:36:58.380Z,99.90
2017-12-04T18:39:25.390Z,99.90
2017-12-04T18:41:52.416Z,99.90
2017-12-04T18:44:19.480Z,99.90
2017-12-04T18:46:46.476Z,99.90
2017-12-04T18:49:13.434Z,99.90
2017-12-04T18:51:41.287Z,99.90
2017-12-04T18:54:08.292Z,99.90
2017-12-04T18:56:36.395Z,99.90
2017-12-04T18:59:03.372Z,99.90
2017-12-04T19:01:30.423Z,99.90
2017-12-04T19:03:58.141Z,99.90
2017-12-04T19:06:25.196Z,99.90
2017-12-04T19:08:52.141Z,99.90
2017-12-04T19:11:20.358Z,99.90
2017-12-04T19:13:48.176Z,99.90
2017-12-04T19:16:15.159Z,99.90
2017-12-04T19:18:43.020Z,99.90
2017-12-04T19:21:17.443Z,99.90
2017-12-04T19:23:47.460Z,99.90
2017-12-04T19:26:14.510Z,99.90
2017-12-04T19:28:41.555Z,99.90
2017-12-04T19:31:08.512Z,99.90
2017-12-04T19:33:37.097Z,99.90
2017-12-04T19:36:04.288Z,99.90
2017-12-04T19:38:31.309Z,99.90
2017-12-04T19:40:59.032Z,99.90
2017-12-04T19:43:26.145Z,99.90
2017-12-04T19:45:53.211Z,99.90
2017-12-04T19:48:20.280Z,99.90
2017-12-04T19:50:47.329Z,99.90
2017-12-04T19:53:14.786Z,99.90
2017-12-04T19:55:41.931Z,99.90
2017-12-04T19:58:09.128Z,99.90
2017-12-04T20:00:37.816Z,99.90
2017-12-04T20:03:06.715Z,99.90
2017-12-04T20:05:36.822Z,99.90
2017-12-04T20:08:04.137Z,99.90
2017-12-04T20:10:32.747Z,99.90
2017-12-04T20:12:59.834Z,99.90
2017-12-04T20:15:28.508Z,99.90
2017-12-04T20:17:55.855Z,99.90
2017-12-04T20:20:23.797Z,99.90
2017-12-04T20:22:50.972Z,99.90
2017-12-04T20:25:18.792Z,99.90
2017-12-04T20:27:48.506Z,99.90
2017-12-04T20:30:15.643Z,99.90
2017-12-04T20:32:44.257Z,99.90
2017-12-04T20:35:13.685Z,99.90
2017-12-04T20:37:40.697Z,99.90
2017-12-04T20:40:08.431Z,99.90
2017-12-04T20:42:36.871Z,99.90
2017-12-04T20:45:05.297Z,99.90
2017-12-04T20:47:32.772Z,99.90
2017-12-04T20:49:59.843Z,99.90
2017-12-04T20:52:31.647Z,99.90
2017-12-04T20:55:00.978Z,99.90
2017-12-04T20:57:30.167Z,99.90
2017-12-04T20:59:59.426Z,99.90
2017-12-04T21:02:29.378Z,99.90
2017-12-04T21:04:58.576Z,99.90
2017-12-04T21:07:27.742Z,99.90
2017-12-04T21:10:07.823Z,99.90
2017-12-04T21:12:35.916Z,99.90
2017-12-04T21:15:14.927Z,99.90
2017-12-04T21:17:41.932Z,99.90
2017-12-04T21:20:08.896Z,99.90
2017-12-04T21:22:36.728Z,99.90
2017-12-04T21:25:03.796Z,99.90
2017-12-04T21:27:30.847Z,99.90
2017-12-04T21:29:57.940Z,99.90
2017-12-04T21:32:24.914Z,99.90
2017-12-04T21:35:04.864Z,99.90
2017-12-04T21:37:40.222Z,99.90
2017-12-04T21:40:20.091Z,99.90
2017-12-04T21:42:57.648Z,99.90
2017-12-04T21:45:38.402Z,99.90
2017-12-04T21:48:11.909Z,99.90
2017-12-04T21:50:49.482Z,99.90
2017-12-04T21:53:26.381Z,99.90
2017-12-04T21:55:57.820Z,99.90
2017-12-04T21:58:38.522Z,99.90
2017-12-04T22:01:18.015Z,99.90
2017-12-04T22:03:54.806Z,99.90
2017-12-04T22:06:34.424Z,99.90
2017-12-04T22:09:07.330Z,99.90
2017-12-04T22:11:44.343Z,99.90
2017-12-04T22:14:17.457Z,99.90
2017-12-04T22:16:51.772Z,99.90
2017-12-04T22:19:27.165Z,99.90
2017-12-04T22:22:00.614Z,99.90
2017-12-04T22:24:34.945Z,99.90
2017-12-04T22:27:13.570Z,99.90
2017-12-04T22:29:53.979Z,99.90
2017-12-04T22:32:30.408Z,99.90
2017-12-04T22:35:02.091Z,99.90
2017-12-04T22:37:38.446Z,99.90
2017-12-04T22:40:15.664Z,99.90
2017-12-04T22:42:49.208Z,99.90
2017-12-04T22:45:23.676Z,99.90
2017-12-04T22:48:05.207Z,99.90
2017-12-04T22:50:40.409Z,99.90
2017-12-04T22:53:13.176Z,99.90
2017-12-04T22:55:43.074Z,99.90
2017-12-04T22:58:14.525Z,99.90
2017-12-04T23:00:45.596Z,99.90
2017-12-04T23:03:26.852Z,99.90
2017-12-04T23:06:03.076Z,99.90
2017-12-04T23:08:36.607Z,99.90
2017-12-04T23:11:08.126Z,99.90
2017-12-04T23:13:38.369Z,99.90
2017-12-04T23:16:06.647Z,99.90
2017-12-04T23:18:35.215Z,99.90
2017-12-04T23:21:03.578Z,99.90
2017-12-04T23:23:33.023Z,99.90
2017-12-04T23:26:13.723Z,99.90
2017-12-04T23:28:44.008Z,99.90
2017-12-04T23:31:14.927Z,99.90
2017-12-04T23:33:53.846Z,99.90
2017-12-04T23:39:09.579Z,99.90
2017-12-04T23:41:39.748Z,99.90
2017-12-04T23:44:10.458Z,99.90
2017-12-04T23:46:52.096Z,99.90
2017-12-04T23:49:25.869Z,99.90
2017-12-04T23:52:04.990Z,99.90
2017-12-04T23:54:36.669Z,99.90
2017-12-04T23:57:08.670Z,99.90
2017-12-04T23:59:40.954Z,99.90
